createdAt,value
2019-04-06T00:01:54.280Z,49.61
2019-04-06T00:04:23.917Z,49.65
2019-04-06T00:06:53.585Z,49.57
2019-04-06T00:09:23.216Z,49.66
2019-04-06T00:11:52.848Z,49.66
2019-04-06T00:14:22.533Z,49.67
2019-04-06T00:16:52.162Z,49.67
2019-04-06T00:19:21.795Z,49.91
2019-04-06T00:21:51.567Z,49.95
2019-04-06T00:24:21.200Z,50.09
2019-04-06T00:26:50.909Z,50.18
2019-04-06T00:29:20.674Z,50.22
2019-04-06T00:31:52.285Z,50.23
2019-04-06T00:34:22.705Z,50.41
2019-04-06T00:36:52.469Z,50.57
2019-04-06T00:39:22.171Z,50.64
2019-04-06T00:41:52.162Z,50.55
2019-04-06T00:44:21.839Z,50.50
2019-04-06T00:46:51.470Z,50.46
2019-04-06T00:49:21.130Z,50.53
2019-04-06T00:51:51.276Z,50.57
2019-04-06T00:54:20.897Z,50.63
2019-04-06T00:56:50.578Z,50.64
2019-04-06T00:59:20.234Z,50.67
2019-04-06T01:01:50.988Z,50.67
2019-04-06T01:04:20.595Z,50.69
2019-04-06T01:06:50.991Z,50.75
2019-04-06T01:09:20.693Z,50.91
2019-04-06T01:11:50.342Z,51.03
2019-04-06T01:14:20.024Z,51.13
2019-04-06T01:16:49.686Z,51.23
2019-04-06T01:19:19.483Z,51.49
2019-04-06T01:21:49.154Z,51.70
2019-04-06T01:24:18.784Z,51.75
2019-04-06T01:26:48.405Z,52.14
2019-04-06T01:29:18.092Z,52.33
2019-04-06T01:31:47.718Z,52.40
2019-04-06T01:34:17.333Z,52.27
2019-04-06T01:36:48.467Z,52.26
2019-04-06T01:39:18.384Z,52.32
2019-04-06T01:41:48.026Z,52.36
2019-04-06T01:44:17.729Z,52.36
2019-04-06T01:46:47.335Z,52.37
2019-04-06T01:49:16.988Z,52.38
2019-04-06T01:51:46.661Z,52.27
2019-04-06T01:54:16.299Z,52.29
2019-04-06T01:56:45.987Z,52.31
2019-04-06T01:59:15.697Z,52.43
2019-04-06T02:01:50.026Z,52.43
2019-04-06T02:04:20.265Z,52.44
2019-04-06T02:06:49.918Z,52.65
2019-04-06T02:09:19.548Z,52.77
2019-04-06T02:11:49.176Z,52.86
2019-04-06T02:14:18.937Z,52.82
2019-04-06T02:16:48.677Z,52.80
2019-04-06T02:19:18.243Z,52.91
2019-04-06T02:21:47.930Z,52.99
2019-04-06T02:24:17.684Z,53.04
2019-04-06T02:26:47.264Z,52.98
2019-04-06T02:29:17.204Z,53.08
2019-04-06T02:32:04.985Z,53.21
2019-04-06T02:34:39.340Z,53.17
2019-04-06T02:37:26.958Z,53.16
2019-04-06T02:40:07.457Z,53.28
2019-04-06T02:42:49.052Z,53.41
2019-04-06T02:45:19.295Z,53.53
2019-04-06T02:47:48.915Z,53.58
2019-04-06T02:50:18.907Z,53.74
2019-04-06T02:52:48.633Z,53.82
2019-04-06T02:55:18.547Z,53.90
2019-04-06T02:57:48.188Z,53.94
2019-04-06T03:00:18.001Z,54.01
2019-04-06T03:02:47.620Z,54.03
2019-04-06T03:05:17.278Z,54.12
2019-04-06T03:07:47.177Z,54.25
2019-04-06T03:10:16.896Z,54.36
2019-04-06T03:12:46.528Z,54.59
2019-04-06T03:15:16.321Z,54.71
2019-04-06T03:17:47.586Z,54.95
2019-04-06T03:20:17.211Z,54.97
2019-04-06T03:22:47.605Z,55.03
2019-04-06T03:25:17.231Z,55.10
2019-04-06T03:27:46.857Z,55.15
2019-04-06T03:30:17.078Z,55.24
2019-04-06T03:32:46.802Z,55.27
2019-04-06T03:35:16.453Z,55.28
2019-04-06T03:37:46.209Z,55.34
2019-04-06T03:40:17.413Z,55.40
2019-04-06T03:42:47.955Z,55.48
2019-04-06T03:45:19.281Z,55.55
2019-04-06T03:47:48.900Z,55.58
2019-04-06T03:50:18.529Z,55.66
2019-04-06T03:52:48.291Z,55.79
2019-04-06T03:55:17.897Z,55.81
2019-04-06T03:57:47.529Z,55.83
2019-04-06T04:00:17.333Z,55.98
2019-04-06T04:02:48.638Z,56.14
2019-04-06T04:05:18.525Z,56.31
2019-04-06T04:07:48.229Z,56.42
2019-04-06T04:10:29.726Z,56.56
2019-04-06T04:12:59.679Z,56.67
2019-04-06T04:15:29.974Z,56.67
2019-04-06T04:17:59.672Z,56.79
2019-04-06T04:20:29.542Z,56.80
2019-04-06T04:22:59.204Z,56.88
2019-04-06T04:25:28.838Z,56.85
2019-04-06T04:27:58.989Z,56.86
2019-04-06T04:30:32.934Z,56.92
2019-04-06T04:32:59.948Z,57.09
2019-04-06T04:35:29.765Z,57.21
2019-04-06T04:37:59.392Z,57.32
2019-04-06T04:40:29.156Z,57.40
2019-04-06T04:42:58.877Z,57.42
2019-04-06T04:45:28.474Z,57.54
2019-04-06T04:47:58.560Z,57.62
2019-04-06T04:50:28.233Z,57.68
2019-04-06T04:52:57.873Z,57.79
2019-04-06T04:55:27.511Z,57.72
2019-04-06T04:57:57.172Z,57.66
2019-04-06T05:00:27.075Z,57.62
2019-04-06T05:02:56.865Z,57.72
2019-04-06T05:05:26.483Z,57.83
2019-04-06T05:07:57.086Z,57.96
2019-04-06T05:10:26.808Z,58.12
2019-04-06T05:12:56.464Z,58.13
2019-04-06T05:16:06.329Z,58.13
2019-04-06T05:18:35.990Z,58.33
2019-04-06T05:21:05.617Z,58.40
2019-04-06T05:23:35.411Z,58.43
2019-04-06T05:26:06.398Z,58.56
2019-04-06T05:28:39.285Z,58.67
2019-04-06T05:31:08.954Z,58.63
2019-04-06T05:33:39.173Z,58.53
2019-04-06T05:36:08.985Z,58.56
2019-04-06T05:38:38.704Z,58.52
2019-04-06T05:41:08.658Z,58.56
2019-04-06T05:43:38.292Z,58.70
2019-04-06T05:46:08.092Z,58.65
2019-04-06T05:48:38.015Z,58.64
2019-04-06T05:51:08.502Z,58.72
2019-04-06T05:53:38.706Z,58.74
2019-04-06T05:56:08.376Z,58.80
2019-04-06T05:58:40.632Z,58.81
2019-04-06T06:01:11.179Z,58.97
2019-04-06T06:03:41.611Z,59.09
2019-04-06T06:06:12.860Z,59.02
2019-04-06T06:08:42.637Z,59.06
2019-04-06T06:11:12.329Z,58.94
2019-04-06T06:13:42.029Z,59.09
2019-04-06T06:16:12.347Z,59.01
2019-04-06T06:18:42.086Z,59.13
2019-04-06T06:21:11.724Z,59.26
2019-04-06T06:23:41.357Z,58.86
2019-04-06T06:26:11.262Z,58.47
2019-04-06T06:28:40.894Z,57.92
2019-04-06T06:31:10.748Z,57.55
2019-04-06T06:33:40.366Z,57.32
2019-04-06T06:36:13.125Z,57.24
2019-04-06T06:38:43.034Z,57.04
2019-04-06T06:41:12.767Z,56.76
2019-04-06T06:43:45.059Z,56.41
2019-04-06T06:46:13.985Z,56.17
2019-04-06T06:48:45.872Z,55.95
2019-04-06T06:51:15.176Z,55.89
2019-04-06T06:53:44.818Z,55.66
2019-04-06T06:56:14.487Z,55.44
2019-04-06T06:58:44.118Z,55.35
2019-04-06T07:01:13.841Z,55.15
2019-04-06T07:03:43.639Z,54.87
2019-04-06T07:06:13.277Z,54.77
2019-04-06T07:08:42.947Z,54.71
2019-04-06T07:11:12.691Z,54.50
2019-04-06T07:13:42.324Z,54.35
2019-04-06T07:16:12.031Z,54.19
2019-04-06T07:18:41.823Z,54.09
2019-04-06T07:21:12.045Z,53.79
2019-04-06T07:23:41.926Z,53.65
2019-04-06T07:26:11.597Z,53.38
2019-04-06T07:28:41.250Z,53.34
2019-04-06T07:31:10.884Z,53.30
2019-04-06T07:33:40.540Z,52.84
2019-04-06T07:36:10.233Z,52.78
2019-04-06T07:38:39.955Z,52.78
2019-04-06T07:41:09.629Z,52.47
2019-04-06T07:43:39.261Z,52.35
2019-04-06T07:46:08.903Z,52.04
2019-04-06T07:48:38.612Z,51.76
2019-04-06T07:51:08.283Z,51.49
2019-04-06T07:53:37.915Z,51.10
2019-04-06T07:56:07.596Z,51.38
2019-04-06T07:58:48.011Z,51.32
2019-04-06T08:01:10.443Z,51.59
2019-04-06T08:03:40.199Z,51.17
2019-04-06T08:06:09.867Z,50.90
2019-04-06T08:08:39.926Z,50.76
2019-04-06T08:11:09.545Z,50.91
2019-04-06T08:13:39.202Z,50.72
2019-04-06T08:16:08.839Z,50.84
2019-04-06T08:18:40.308Z,50.27
2019-04-06T08:21:11.585Z,50.46
2019-04-06T08:23:41.218Z,50.28
2019-04-06T08:26:10.893Z,50.18
2019-04-06T08:28:40.573Z,50.19
2019-04-06T08:31:10.199Z,49.91
2019-04-06T08:33:39.899Z,50.08
2019-04-06T08:36:09.542Z,50.37
2019-04-06T08:38:39.372Z,50.11
2019-04-06T08:41:09.063Z,49.92
2019-04-06T08:43:38.689Z,49.73
2019-04-06T08:46:08.988Z,49.47
2019-04-06T08:48:38.655Z,49.71
2019-04-06T08:51:08.285Z,49.52
2019-04-06T08:53:37.932Z,49.33
2019-04-06T08:56:07.628Z,49.31
2019-04-06T08:58:37.809Z,49.29
2019-04-06T09:01:07.439Z,49.36
2019-04-06T09:03:37.381Z,49.79
2019-04-06T09:06:07.033Z,49.27
2019-04-06T09:08:36.739Z,50.17
2019-04-06T09:11:06.556Z,49.84
2019-04-06T09:13:36.192Z,49.76
2019-04-06T09:16:05.841Z,49.80
2019-04-06T09:18:35.530Z,49.48
2019-04-06T09:21:08.450Z,49.34
2019-04-06T09:23:38.071Z,49.04
2019-04-06T09:26:07.910Z,49.11
2019-04-06T09:28:37.606Z,49.15
2019-04-06T09:31:07.506Z,48.82
2019-04-06T09:33:37.247Z,48.79
2019-04-06T09:36:06.894Z,48.72
2019-04-06T09:38:36.594Z,48.60
2019-04-06T09:41:06.335Z,48.64
2019-04-06T09:43:36.043Z,48.45
2019-04-06T09:46:23.944Z,48.35
2019-04-06T09:48:57.836Z,48.43
2019-04-06T09:51:29.212Z,48.42
2019-04-06T09:54:09.324Z,48.53
2019-04-06T09:56:43.274Z,48.37
2019-04-06T09:59:18.003Z,48.20
2019-04-06T10:01:52.229Z,47.70
2019-04-06T10:04:23.546Z,47.66
2019-04-06T10:07:01.007Z,47.29
2019-04-06T10:09:35.323Z,47.47
2019-04-06T10:12:10.069Z,47.51
2019-04-06T10:14:58.228Z,47.00
2019-04-06T10:21:24.251Z,46.63
2019-04-06T10:24:07.590Z,46.46
2019-04-06T10:26:39.242Z,46.57
2019-04-06T10:29:15.271Z,46.54
2019-04-06T10:32:01.567Z,46.46
2019-04-06T10:34:38.523Z,46.24
2019-04-06T10:37:15.555Z,46.62
2019-04-06T10:39:55.601Z,46.79
2019-04-06T10:42:29.672Z,46.33
2019-04-06T10:45:06.980Z,46.37
2019-04-06T10:47:41.003Z,46.69
2019-04-06T10:50:12.851Z,46.86
2019-04-06T10:53:00.391Z,46.39
2019-04-06T10:55:31.706Z,46.11
2019-04-06T10:58:02.954Z,45.85
2019-04-06T11:00:50.762Z,45.71
2019-04-06T11:03:31.128Z,45.74
2019-04-06T11:06:06.405Z,45.59
2019-04-06T11:08:54.094Z,45.11
2019-04-06T11:11:27.823Z,45.42
2019-04-06T11:13:59.108Z,45.31
2019-04-06T11:16:36.199Z,45.25
2019-04-06T11:19:13.387Z,45.53
2019-04-06T11:21:53.813Z,45.10
2019-04-06T11:24:31.537Z,44.87
2019-04-06T11:27:03.158Z,44.63
2019-04-06T11:29:50.585Z,44.76
2019-04-06T11:32:37.281Z,44.80
2019-04-06T11:35:15.061Z,44.43
2019-04-06T11:37:52.048Z,44.62
2019-04-06T11:40:39.937Z,44.62
2019-04-06T11:43:14.238Z,44.36
2019-04-06T11:45:54.661Z,43.71
2019-04-06T11:48:28.875Z,43.95
2019-04-06T11:51:12.470Z,43.67
2019-04-06T11:53:46.687Z,43.52
2019-04-06T11:56:17.998Z,42.71
2019-04-06T11:58:58.560Z,42.77
2019-04-06T12:01:32.556Z,43.11
2019-04-06T12:04:18.131Z,42.68
2019-04-06T12:06:52.726Z,42.34
2019-04-06T12:09:32.959Z,41.95
2019-04-06T12:12:16.541Z,41.31
2019-04-06T12:14:50.724Z,40.54
2019-04-06T12:17:40.146Z,39.80
2019-04-06T12:20:23.919Z,37.56
2019-04-06T12:23:13.346Z,36.77
2019-04-06T12:25:56.424Z,34.91
2019-04-06T12:28:39.927Z,33.64
2019-04-06T12:31:17.018Z,32.12
2019-04-06T12:33:48.295Z,32.07
2019-04-06T12:36:19.642Z,31.03
2019-04-06T12:38:54.031Z,30.59
2019-04-06T12:41:28.156Z,30.12
2019-04-06T12:44:14.511Z,29.84
2019-04-06T12:46:46.560Z,28.95
2019-04-06T12:49:34.067Z,28.13
2019-04-06T12:52:14.815Z,28.13
2019-04-06T12:54:55.699Z,27.87
2019-04-06T12:57:42.155Z,27.35
2019-04-06T13:00:29.753Z,26.40
2019-04-06T13:03:10.245Z,25.99
2019-04-06T13:05:47.178Z,25.35
2019-04-06T13:08:24.451Z,24.53
2019-04-06T13:11:12.299Z,23.70
2019-04-06T13:13:56.023Z,23.17
2019-04-06T13:16:27.265Z,22.73
2019-04-06T13:19:04.438Z,22.18
2019-04-06T13:21:52.127Z,21.41
2019-04-06T13:24:29.105Z,20.82
2019-04-06T13:27:03.415Z,20.17
2019-04-06T13:29:43.233Z,19.38
2019-04-06T13:32:30.919Z,19.20
2019-04-06T13:35:18.565Z,18.91
2019-04-06T13:37:52.840Z,18.42
2019-04-06T13:40:41.667Z,17.84
2019-04-06T13:43:13.160Z,17.27
2019-04-06T13:45:59.732Z,16.67
2019-04-06T13:48:45.986Z,16.44
2019-04-06T13:51:19.834Z,16.14
2019-04-06T13:54:03.485Z,16.00
2019-04-06T13:56:46.606Z,17.25
2019-04-06T13:59:34.262Z,17.80
2019-04-06T14:02:14.282Z,16.90
2019-04-06T14:05:01.511Z,16.23
2019-04-06T14:07:48.942Z,16.74
2019-04-06T14:10:20.240Z,18.52
2019-04-06T14:13:02.497Z,20.30
2019-04-06T14:15:45.841Z,21.68
2019-04-06T14:18:23.271Z,23.03
2019-04-06T14:21:10.555Z,24.11
2019-04-06T14:23:44.806Z,25.25
2019-04-06T14:26:32.131Z,25.60
2019-04-06T14:29:03.744Z,26.08
2019-04-06T14:31:50.914Z,26.56
2019-04-06T14:34:40.250Z,26.50
2019-04-06T14:37:20.463Z,26.87
2019-04-06T14:39:51.748Z,27.01
2019-04-06T14:42:41.437Z,27.46
2019-04-06T14:45:21.795Z,27.68
2019-04-06T14:47:59.077Z,27.94
2019-04-06T14:50:39.626Z,27.95
2019-04-06T14:53:11.469Z,28.25
2019-04-06T14:55:45.799Z,28.62
2019-04-06T14:58:17.112Z,28.63
2019-04-06T15:01:05.103Z,28.67
2019-04-06T15:03:36.713Z,28.83
2019-04-06T15:06:19.591Z,28.76
2019-04-06T15:08:52.003Z,28.76
2019-04-06T15:11:23.366Z,28.74
2019-04-06T15:13:57.803Z,28.83
2019-04-06T15:16:29.079Z,28.57
2019-04-06T15:19:09.402Z,28.57
2019-04-06T15:21:43.770Z,28.71
2019-04-06T15:24:21.238Z,28.68
2019-04-06T15:26:58.805Z,28.68
2019-04-06T15:29:33.205Z,29.07
2019-04-06T15:32:13.648Z,29.12
2019-04-06T15:34:45.047Z,29.36
2019-04-06T15:37:28.131Z,29.72
2019-04-06T15:40:15.233Z,29.81
2019-04-06T15:42:46.513Z,29.97
2019-04-06T15:45:33.148Z,30.08
2019-04-06T15:48:20.544Z,30.47
2019-04-06T15:51:08.845Z,30.62
2019-04-06T15:53:42.938Z,30.55
2019-04-06T15:56:14.208Z,30.85
2019-04-06T15:58:48.232Z,31.02
2019-04-06T16:01:22.736Z,31.50
2019-04-06T16:03:57.103Z,32.08
2019-04-06T16:06:28.494Z,33.12
2019-04-06T16:09:16.643Z,33.82
2019-04-06T16:12:05.149Z,34.38
2019-04-06T16:14:39.436Z,34.72
2019-04-06T16:17:10.709Z,35.20
2019-04-06T16:19:41.977Z,35.95
2019-04-06T16:22:13.318Z,36.24
2019-04-06T16:24:44.695Z,36.45
2019-04-06T16:27:16.027Z,36.89
2019-04-06T16:29:57.503Z,37.00
2019-04-06T16:32:37.779Z,37.28
2019-04-06T16:35:27.333Z,37.59
2019-04-06T16:38:07.834Z,37.90
2019-04-06T16:40:55.607Z,38.38
2019-04-06T16:43:32.119Z,38.80
2019-04-06T16:46:19.041Z,39.06
2019-04-06T16:48:59.593Z,39.31
2019-04-06T16:51:30.853Z,39.31
2019-04-06T16:54:18.147Z,39.51
2019-04-06T16:56:52.166Z,39.72
2019-04-06T16:59:25.900Z,39.96
2019-04-06T17:02:06.070Z,40.35
2019-04-06T17:04:40.638Z,40.59
2019-04-06T17:07:17.764Z,40.81
2019-04-06T17:10:00.673Z,40.97
2019-04-06T17:12:31.983Z,41.10
2019-04-06T17:15:20.024Z,41.21
2019-04-06T17:17:51.358Z,41.34
2019-04-06T17:20:28.693Z,41.53
2019-04-06T17:23:02.435Z,41.74
2019-04-06T17:25:53.049Z,41.74
2019-04-06T17:28:29.882Z,41.89
2019-04-06T17:31:13.329Z,41.96
2019-04-06T17:33:44.854Z,42.16
2019-04-06T17:36:34.198Z,42.31
2019-04-06T17:39:23.372Z,42.42
2019-04-06T17:41:57.552Z,42.48
2019-04-06T17:44:37.833Z,42.54
2019-04-06T17:47:25.379Z,42.66
2019-04-06T17:50:02.480Z,42.80
2019-04-06T17:52:37.049Z,43.14
2019-04-06T17:55:12.440Z,43.62
2019-04-06T17:58:01.698Z,43.98
2019-04-06T18:00:50.329Z,44.07
2019-04-06T18:03:36.901Z,44.04
2019-04-06T18:06:24.715Z,44.49
2019-04-06T18:08:55.990Z,45.13
2019-04-06T18:11:27.269Z,45.55
2019-04-06T18:13:57.572Z,45.54
2019-04-06T18:16:30.052Z,45.21
2019-04-06T18:19:00.263Z,45.16
2019-04-06T18:21:30.230Z,45.43
2019-04-06T18:24:02.048Z,45.32
2019-04-06T18:26:31.780Z,45.92
2019-04-06T18:29:01.767Z,46.90
2019-04-06T18:31:33.840Z,47.58
2019-04-06T18:34:05.237Z,47.72
2019-04-06T18:36:48.485Z,47.37
2019-04-06T18:39:22.963Z,47.14
2019-04-06T18:41:53.563Z,47.25
2019-04-06T18:44:23.426Z,46.87
2019-04-06T18:46:56.613Z,47.03
2019-04-06T18:49:28.324Z,47.31
2019-04-06T18:51:58.343Z,47.60
2019-04-06T18:54:28.169Z,47.74
2019-04-06T18:56:58.079Z,48.02
2019-04-06T18:59:27.698Z,48.02
2019-04-06T19:01:58.864Z,48.02
2019-04-06T19:04:29.368Z,47.92
2019-04-06T19:07:03.810Z,48.15
2019-04-06T19:09:35.177Z,48.48
2019-04-06T19:12:05.336Z,48.35
2019-04-06T19:14:35.104Z,48.19
2019-04-06T19:17:04.818Z,48.35
2019-04-06T19:19:34.513Z,48.56
2019-04-06T19:22:04.684Z,48.75
2019-04-06T19:24:34.417Z,48.92
2019-04-06T19:27:04.451Z,48.94
2019-04-06T19:29:34.121Z,48.75
2019-04-06T19:32:06.976Z,48.45
2019-04-06T19:34:37.304Z,48.44
2019-04-06T19:37:12.431Z,48.56
2019-04-06T19:39:42.273Z,48.77
2019-04-06T19:42:12.082Z,48.84
2019-04-06T19:44:42.522Z,48.70
2019-04-06T19:47:12.123Z,48.54
2019-04-06T19:49:42.575Z,48.07
2019-04-06T19:52:12.405Z,47.91
2019-04-06T19:54:42.366Z,47.76
2019-04-06T19:57:17.440Z,47.95
2019-04-06T19:59:48.787Z,48.20
2019-04-06T20:02:22.044Z,48.36
2019-04-06T20:04:51.890Z,48.83
2019-04-06T20:07:21.995Z,49.54
2019-04-06T20:09:52.138Z,49.87
2019-04-06T20:12:21.923Z,49.95
2019-04-06T20:14:51.708Z,50.00
2019-04-06T20:17:22.439Z,50.35
2019-04-06T20:19:52.203Z,50.17
2019-04-06T20:22:22.948Z,49.97
2019-04-06T20:24:53.161Z,50.00
2019-04-06T20:27:23.264Z,49.85
2019-04-06T20:29:53.515Z,49.58
2019-04-06T20:32:23.518Z,49.58
2019-04-06T20:34:53.628Z,49.75
2019-04-06T20:37:23.470Z,49.96
2019-04-06T20:39:54.158Z,49.80
2019-04-06T20:42:23.957Z,49.56
2019-04-06T20:44:53.875Z,49.33
2019-04-06T20:47:26.718Z,49.29
2019-04-06T20:49:58.183Z,49.40
2019-04-06T20:52:28.162Z,49.28
2019-04-06T20:54:58.131Z,49.65
2019-04-06T20:57:28.388Z,49.57
2019-04-06T20:59:58.093Z,49.61
2019-04-06T21:02:27.806Z,49.50
2019-04-06T21:04:57.545Z,49.89
2019-04-06T21:07:27.301Z,50.91
2019-04-06T21:09:57.165Z,51.22
2019-04-06T21:12:27.504Z,51.63
2019-04-06T21:14:57.229Z,52.00
2019-04-06T21:17:30.171Z,51.78
2019-04-06T21:20:00.074Z,51.59
2019-04-06T21:22:29.719Z,51.07
2019-04-06T21:24:59.675Z,50.39
2019-04-06T21:27:29.329Z,50.42
2019-04-06T21:29:59.583Z,50.40
2019-04-06T21:32:29.339Z,50.28
2019-04-06T21:34:59.225Z,50.18
2019-04-06T21:37:29.929Z,50.20
2019-04-06T21:39:59.907Z,50.10
2019-04-06T21:42:30.267Z,50.00
2019-04-06T21:44:59.992Z,50.04
2019-04-06T21:47:29.800Z,50.03
2019-04-06T21:50:00.233Z,50.07
2019-04-06T21:52:30.341Z,50.24
2019-04-06T21:55:00.144Z,50.25
2019-04-06T21:57:29.837Z,50.37
2019-04-06T21:59:59.591Z,50.56
2019-04-06T22:02:30.806Z,50.57
2019-04-06T22:05:01.160Z,50.45
2019-04-06T22:07:33.736Z,50.51
2019-04-06T22:10:07.830Z,50.52
2019-04-06T22:12:37.803Z,50.61
2019-04-06T22:15:07.657Z,50.27
2019-04-06T22:17:37.400Z,50.70
2019-04-06T22:20:07.444Z,51.19
2019-04-06T22:22:37.053Z,51.70
2019-04-06T22:25:07.479Z,51.80
2019-04-06T22:27:37.205Z,51.85
2019-04-06T22:30:09.703Z,51.77
2019-04-06T22:32:39.528Z,51.62
2019-04-06T22:35:12.506Z,51.70
2019-04-06T22:37:48.685Z,51.50
2019-04-06T22:40:18.583Z,51.63
2019-04-06T22:42:48.199Z,51.55
2019-04-06T22:45:21.049Z,51.22
2019-04-06T22:47:50.859Z,51.15
2019-04-06T22:50:20.933Z,51.31
2019-04-06T22:52:50.612Z,51.40
2019-04-06T22:55:20.257Z,51.61
2019-04-06T22:57:51.980Z,52.17
2019-04-06T23:00:32.632Z,52.24
2019-04-06T23:03:03.924Z,52.17
2019-04-06T23:05:35.750Z,52.51
2019-04-06T23:08:05.622Z,52.53
2019-04-06T23:10:35.253Z,52.83
2019-04-06T23:13:05.593Z,52.92
2019-04-06T23:15:35.476Z,52.95
2019-04-06T23:18:05.204Z,52.81
2019-04-06T23:20:35.257Z,52.93
2019-04-06T23:23:08.498Z,52.97
2019-04-06T23:25:38.464Z,52.80
2019-04-06T23:28:08.108Z,52.71
2019-04-06T23:30:38.770Z,52.58
2019-04-06T23:33:10.286Z,52.66
2019-04-06T23:35:41.271Z,52.71
2019-04-06T23:38:11.236Z,52.64
2019-04-06T23:40:40.953Z,52.89
2019-04-06T23:43:10.608Z,52.91
2019-04-06T23:45:40.389Z,53.15
2019-04-06T23:48:10.831Z,53.45
2019-04-06T23:50:40.642Z,53.83
2019-04-06T23:53:10.283Z,53.72
2019-04-06T23:55:39.924Z,53.96
2019-04-06T23:58:09.658Z,54.00
